Portada
METAR-TAF:

METAR-TAF

Aeroports :

Madrid, Espanya

Aeroport de Madrid-Barajas

latitud: 40-27N, longitud: 003-33W, altitud: 609 m

Observació

L'informe es va fer fa 29 minuts, a les 19:30 UTC
Vent 14 kt del Nord
Temperatura 11°C
Humitat 62%
Pressió 1018 hPa
Visibilitat 10 km o més
Escasses núvols a una alçada de 6500 ft

METAR: LEMD 191930Z 35014KT 9999 FEW065 11/04 Q1018 NOSIG

Hora: 20:59 (19:59 UTC)

Pronòstic

L'informe es va fer fa 2 hores i 59 minuts, a les 17:00 UTC
Pronòstic vàlid del 19 a les 18 UTC al 20 a les 24 UTC
Vent 10 kt del Nord/Nord-Est
Visibilitat 10 km o més
sense núvols per sota de 1500 mi sense presència de cumulonimbus.
Temporalment
l' 20 a les 11 UTC al 20 a les 19 UTC
Vent 15 kt del Nord/Nord-Est amb ràfegues de 25 kt

TAF: LEMD 191700Z 1918/2024 02010KT CAVOK TX15/2015Z TN04/2006Z TEMPO 2011/2019 02015G25KT

Observacions i pronòstics meteorològics de més de 4000 aeroports (METAR i TAF).

Les estacions disponibles són els punts grocs i vermells al mapa.

Posi el ratolí al punt desitjat per veure el nom de l'estació.

Feu clic per veure les observacions i els pronòstics meteorològics.

Per canviar el mapa: feu clic els botons verds amb una creu de color negre per apropar; al botó verd amb un guió per allunyar la imatge; o en les fletxes verdes per a mapes adjacents.


METAR-TAF: